Time;durP1;ratioP1;P1;durP2;ratioP2;P2;SDS_P1;SDS_P2;PMS_P1;PMS_P2;Temp;Humidity;BMP_temperature;BMP_pressure;BME280_temperature;BME280_humidity;BME280_pressure;Samples;Min_cycle;Max_cycle;Signal;HPM_P1;HPM_P2
2024/03/05 00:00:49;;;;;;;0.10;0.10;;;;;;;;;;5095351;28;20104;-87
2024/03/05 00:03:15;;;;;;;0.10;0.10;;;;;;;;;;5112068;28;20070;-88
2024/03/05 00:05:41;;;;;;;0.10;0.10;;;;;;;;;;5078057;28;20036;-88
2024/03/05 00:08:07;;;;;;;0.10;0.10;;;;;;;;;;5095071;28;20053;-87
2024/03/05 00:10:33;;;;;;;0.20;0.20;;;;;;;;;;5094825;28;20044;-88
2024/03/05 00:12:59;;;;;;;2.45;0.30;;;;;;;;;;5111742;28;20138;-86
2024/03/05 00:15:26;;;;;;;0.10;0.10;;;;;;;;;;5078093;28;20035;-86
2024/03/05 00:17:52;;;;;;;0.20;0.20;;;;;;;;;;5077866;28;20031;-86
2024/03/05 00:20:18;;;;;;;0.10;0.10;;;;;;;;;;5094887;28;20443;-87
2024/03/05 00:22:45;;;;;;;0.10;0.10;;;;;;;;;;5094956;28;20399;-87
2024/03/05 00:25:12;;;;;;;0.10;0.10;;;;;;;;;;5111466;28;20039;-85
2024/03/05 00:27:38;;;;;;;0.22;0.22;;;;;;;;;;5094462;28;20088;-86
2024/03/05 00:30:12;;;;;;;0.28;0.28;;;;;;;;;;5094336;28;20075;-86
2024/03/05 00:32:39;;;;;;;0.68;0.68;;;;;;;;;;5111321;28;20490;-85
2024/03/05 00:35:06;;;;;;;0.35;0.35;;;;;;;;;;5094337;28;20080;-86
2024/03/05 00:37:32;;;;;;;0.20;0.20;;;;;;;;;;5094629;28;20052;-85
2024/03/05 00:39:58;;;;;;;0.10;0.10;;;;;;;;;;5077556;28;20035;-85
2024/03/05 00:42:24;;;;;;;0.10;0.10;;;;;;;;;;5077615;28;20039;-86
2024/03/05 00:44:50;;;;;;;0.10;0.10;;;;;;;;;;5077603;28;20047;-86
2024/03/05 00:47:16;;;;;;;0.22;0.22;;;;;;;;;;5094380;28;20044;-86
2024/03/05 00:49:42;;;;;;;0.10;0.10;;;;;;;;;;5094291;28;20039;-85
2024/03/05 00:52:08;;;;;;;0.10;0.10;;;;;;;;;;5077371;28;20036;-86
2024/03/05 00:54:34;;;;;;;0.10;0.10;;;;;;;;;;5111148;28;20406;-86
2024/03/05 00:57:00;;;;;;;0.10;0.10;;;;;;;;;;5077304;28;20080;-85
2024/03/05 00:59:26;;;;;;;0.10;0.10;;;;;;;;;;5077645;28;20043;-86
2024/03/05 01:01:52;;;;;;;0.10;0.10;;;;;;;;;;5077311;28;20536;-86
2024/03/05 01:04:18;;;;;;;0.10;0.10;;;;;;;;;;5094381;28;20051;-85
2024/03/05 01:06:44;;;;;;;0.10;0.10;;;;;;;;;;5094133;28;20082;-85
2024/03/05 01:09:19;;;;;;;0.10;0.10;;;;;;;;;;5094093;28;20483;-86
2024/03/05 01:11:45;;;;;;;0.20;0.20;;;;;;;;;;5078301;28;20482;-86
2024/03/05 01:14:11;;;;;;;0.10;0.10;;;;;;;;;;5111280;28;20383;-86
2024/03/05 01:16:37;;;;;;;0.10;0.10;;;;;;;;;;5078972;28;20036;-86
2024/03/05 01:19:03;;;;;;;0.20;0.20;;;;;;;;;;5097851;28;20044;-86
2024/03/05 01:21:30;;;;;;;0.10;0.10;;;;;;;;;;5098232;28;20387;-86
2024/03/05 01:23:57;;;;;;;0.10;0.10;;;;;;;;;;5098156;28;20128;-86
2024/03/05 01:26:23;;;;;;;0.10;0.10;;;;;;;;;;5098142;28;20177;-85
2024/03/05 01:28:49;;;;;;;0.10;0.10;;;;;;;;;;5114969;28;20441;-86
2024/03/05 01:31:15;;;;;;;0.10;0.10;;;;;;;;;;5097725;28;20483;-86
2024/03/05 01:33:43;;;;;;;0.10;0.10;;;;;;;;;;5097748;28;20071;-86
2024/03/05 01:36:10;;;;;;;0.10;0.10;;;;;;;;;;5080940;28;20039;-86
2024/03/05 01:38:37;;;;;;;0.43;0.43;;;;;;;;;;5081024;28;20046;-86
2024/03/05 01:41:03;;;;;;;0.10;0.10;;;;;;;;;;5097483;28;20042;-86
2024/03/05 01:43:29;;;;;;;0.20;0.20;;;;;;;;;;5097624;28;20047;-86
2024/03/05 01:45:56;;;;;;;0.10;0.10;;;;;;;;;;5080611;28;20540;-86
2024/03/05 01:48:22;;;;;;;0.10;0.10;;;;;;;;;;5097880;28;20084;-87
2024/03/05 01:50:48;;;;;;;0.20;0.20;;;;;;;;;;5080627;28;20047;-87
2024/03/05 01:53:15;;;;;;;0.10;0.10;;;;;;;;;;5097401;28;20051;-87
2024/03/05 01:55:41;;;;;;;0.20;0.20;;;;;;;;;;5080562;28;20498;-87
2024/03/05 01:58:08;;;;;;;0.15;0.15;;;;;;;;;;5080549;28;20040;-86
2024/03/05 02:00:36;;;;;;;0.10;0.10;;;;;;;;;;5097544;28;20395;-87
2024/03/05 02:03:02;;;;;;;0.10;0.10;;;;;;;;;;5097613;28;20075;-91
2024/03/05 02:05:28;;;;;;;0.10;0.10;;;;;;;;;;5081597;28;20055;-90
2024/03/05 02:07:54;;;;;;;0.10;0.10;;;;;;;;;;5098621;28;20414;-92
2024/03/05 02:10:24;;;;;;;0.10;0.10;;;;;;;;;;5097090;28;20040;-86
2024/03/05 02:12:50;;;;;;;0.10;0.10;;;;;;;;;;5080170;28;20042;-87
2024/03/05 02:15:19;;;;;;;0.20;0.20;;;;;;;;;;5097284;28;20299;-85
2024/03/05 02:17:45;;;;;;;0.10;0.10;;;;;;;;;;5080233;28;20066;-85
2024/03/05 02:20:13;;;;;;;0.10;0.10;;;;;;;;;;5097011;28;20458;-87
2024/03/05 02:22:39;;;;;;;0.10;0.10;;;;;;;;;;5080170;28;20130;-85
2024/03/05 02:25:06;;;;;;;0.30;0.30;;;;;;;;;;5096811;28;20040;-85
2024/03/05 02:27:32;;;;;;;0.10;0.10;;;;;;;;;;5095628;28;20043;-86
2024/03/05 02:29:58;;;;;;;0.10;0.10;;;;;;;;;;5113558;28;20044;-86
2024/03/05 02:32:24;;;;;;;0.10;0.10;;;;;;;;;;5079936;28;20394;-85
2024/03/05 02:34:54;;;;;;;0.10;0.10;;;;;;;;;;5096621;28;20123;-86
2024/03/05 02:37:21;;;;;;;0.10;0.10;;;;;;;;;;5097019;28;20047;-86
2024/03/05 02:39:47;;;;;;;0.10;0.10;;;;;;;;;;5080050;28;20070;-86
2024/03/05 02:42:13;;;;;;;0.10;0.10;;;;;;;;;;5079618;28;20130;-85
2024/03/05 02:44:39;;;;;;;0.38;0.38;;;;;;;;;;5113231;28;20070;-85
2024/03/05 02:47:09;;;;;;;0.10;0.10;;;;;;;;;;5079763;28;20126;-85
2024/03/05 02:49:36;;;;;;;0.10;0.10;;;;;;;;;;5096570;28;20044;-85
2024/03/05 02:52:02;;;;;;;0.10;0.10;;;;;;;;;;5079419;28;20501;-85
2024/03/05 02:54:28;;;;;;;0.10;0.10;;;;;;;;;;5079752;28;20089;-86
2024/03/05 02:56:55;;;;;;;0.10;0.10;;;;;;;;;;5079440;28;20067;-87
2024/03/05 02:59:21;;;;;;;0.10;0.10;;;;;;;;;;5096292;28;20043;-86
2024/03/05 03:01:47;;;;;;;0.17;0.17;;;;;;;;;;5095920;28;20406;-86
2024/03/05 03:04:15;;;;;;;0.25;0.25;;;;;;;;;;5079205;28;20054;-86
2024/03/05 03:06:41;;;;;;;0.20;0.20;;;;;;;;;;5079413;28;20478;-86
2024/03/05 03:09:07;;;;;;;0.10;0.10;;;;;;;;;;5095983;28;20105;-86
2024/03/05 03:11:34;;;;;;;0.20;0.20;;;;;;;;;;5095878;28;20411;-86
2024/03/05 03:14:00;;;;;;;0.10;0.10;;;;;;;;;;5079190;28;20127;-86
2024/03/05 03:16:27;;;;;;;0.10;0.10;;;;;;;;;;5095837;28;20035;-85
2024/03/05 03:18:53;;;;;;;0.20;0.20;;;;;;;;;;5078932;28;20047;-85
2024/03/05 03:21:19;;;;;;;0.10;0.10;;;;;;;;;;5079118;28;20406;-85
2024/03/05 03:23:45;;;;;;;0.10;0.10;;;;;;;;;;5095679;28;20040;-86
2024/03/05 03:26:11;;;;;;;0.20;0.20;;;;;;;;;;5078723;28;20478;-85
2024/03/05 03:28:37;;;;;;;0.10;0.10;;;;;;;;;;5095486;28;20126;-86
2024/03/05 03:31:05;;;;;;;0.10;0.10;;;;;;;;;;5078591;28;20088;-86
2024/03/05 03:33:32;;;;;;;0.40;0.40;;;;;;;;;;5079102;28;20043;-86
2024/03/05 03:35:58;;;;;;;0.10;0.10;;;;;;;;;;5095613;28;20040;-86
2024/03/05 03:38:24;;;;;;;0.10;0.10;;;;;;;;;;5095197;28;20173;-85
2024/03/05 03:40:51;;;;;;;0.10;0.10;;;;;;;;;;5095226;28;20047;-85
2024/03/05 03:43:18;;;;;;;0.10;0.10;;;;;;;;;;5095192;28;20040;-85
2024/03/05 03:45:44;;;;;;;0.10;0.10;;;;;;;;;;5095284;28;20078;-86
2024/03/05 03:48:10;;;;;;;0.10;0.10;;;;;;;;;;5078248;28;20084;-85
2024/03/05 03:50:37;;;;;;;0.10;0.10;;;;;;;;;;5095087;28;20362;-85
2024/03/05 03:53:04;;;;;;;0.10;0.10;;;;;;;;;;5095271;28;20089;-86
2024/03/05 03:55:30;;;;;;;0.10;0.10;;;;;;;;;;5095670;28;20036;-85
2024/03/05 03:57:56;;;;;;;0.10;0.10;;;;;;;;;;5095020;28;20042;-85
2024/03/05 04:00:23;;;;;;;0.43;0.40;;;;;;;;;;5078305;28;20032;-85
2024/03/05 04:02:49;;;;;;;0.10;0.10;;;;;;;;;;5077956;28;20092;-86
2024/03/05 04:05:15;;;;;;;0.13;0.13;;;;;;;;;;5078246;28;20100;-86
2024/03/05 04:07:42;;;;;;;0.10;0.10;;;;;;;;;;5094788;28;20551;-85
2024/03/05 04:10:10;;;;;;;0.20;0.20;;;;;;;;;;5077829;28;20071;-85
2024/03/05 04:12:36;;;;;;;0.17;0.17;;;;;;;;;;5078320;28;20035;-86
2024/03/05 04:15:03;;;;;;;0.10;0.10;;;;;;;;;;5111616;28;20055;-86
2024/03/05 04:17:29;;;;;;;0.10;0.10;;;;;;;;;;5078066;28;20031;-84
2024/03/05 04:19:58;;;;;;;0.10;0.10;;;;;;;;;;5111809;28;20035;-85
2024/03/05 04:22:24;;;;;;;0.10;0.10;;;;;;;;;;5111577;28;20108;-86
2024/03/05 04:24:55;;;;;;;0.10;0.10;;;;;;;;;;5094470;28;20399;-86
2024/03/05 04:27:22;;;;;;;0.30;0.30;;;;;;;;;;5094608;28;20047;-86
2024/03/05 04:29:53;;;;;;;0.10;0.10;;;;;;;;;;5077775;28;20043;-86
2024/03/05 04:32:19;;;;;;;0.10;0.10;;;;;;;;;;5094730;28;20085;-86
2024/03/05 04:34:49;;;;;;;0.10;0.10;;;;;;;;;;5077635;28;20078;-87
2024/03/05 04:37:17;;;;;;;0.20;0.20;;;;;;;;;;5078498;28;20480;-86
2024/03/05 04:39:43;;;;;;;0.10;0.10;;;;;;;;;;5094547;28;20051;-86
2024/03/05 04:42:09;;;;;;;0.13;0.13;;;;;;;;;;5094360;28;20071;-87
2024/03/05 04:44:35;;;;;;;0.28;0.28;;;;;;;;;;5077653;28;20046;-85
2024/03/05 04:47:03;;;;;;;0.10;0.10;;;;;;;;;;5094399;28;20047;-86
2024/03/05 04:49:30;;;;;;;0.10;0.10;;;;;;;;;;5077912;28;20047;-86
2024/03/05 04:51:56;;;;;;;0.10;0.10;;;;;;;;;;5096875;28;20152;-85
2024/03/05 04:54:22;;;;;;;0.13;0.13;;;;;;;;;;5098899;28;20344;-86
2024/03/05 04:56:48;;;;;;;0.10;0.10;;;;;;;;;;5098262;28;20139;-86
2024/03/05 04:59:14;;;;;;;0.10;0.10;;;;;;;;;;5115384;28;20052;-86
2024/03/05 05:01:41;;;;;;;0.10;0.10;;;;;;;;;;5081482;28;20162;-86
2024/03/05 05:04:07;;;;;;;0.10;0.10;;;;;;;;;;5115597;28;20051;-85
2024/03/05 05:06:33;;;;;;;0.10;0.10;;;;;;;;;;5081706;28;20047;-86
2024/03/05 05:08:59;;;;;;;0.20;0.20;;;;;;;;;;5098277;28;20097;-86
2024/03/05 05:11:25;;;;;;;0.10;0.10;;;;;;;;;;5081252;28;20433;-85
2024/03/05 05:13:52;;;;;;;0.40;0.40;;;;;;;;;;5098086;28;20067;-85
2024/03/05 05:16:18;;;;;;;0.30;0.30;;;;;;;;;;5081228;28;20039;-85
2024/03/05 05:18:45;;;;;;;0.10;0.10;;;;;;;;;;5098111;28;20049;-85
2024/03/05 05:21:11;;;;;;;0.20;0.20;;;;;;;;;;5081001;28;20082;-85
2024/03/05 05:23:37;;;;;;;0.10;0.10;;;;;;;;;;5098092;28;20391;-84
2024/03/05 05:26:03;;;;;;;0.10;0.10;;;;;;;;;;5114988;28;20040;-87
2024/03/05 05:28:29;;;;;;;0.10;0.10;;;;;;;;;;5081041;28;20036;-86
2024/03/05 05:30:55;;;;;;;0.17;0.17;;;;;;;;;;5114609;28;20036;-85
2024/03/05 05:33:21;;;;;;;0.10;0.10;;;;;;;;;;5115044;28;20058;-85
2024/03/05 05:35:47;;;;;;;0.10;0.10;;;;;;;;;;5098205;28;20083;-86
2024/03/05 05:38:13;;;;;;;0.10;0.10;;;;;;;;;;5097736;28;20046;-85
2024/03/05 05:40:39;;;;;;;0.10;0.10;;;;;;;;;;5080955;28;20050;-85
2024/03/05 05:43:08;;;;;;;0.30;0.30;;;;;;;;;;5114966;28;20062;-86
2024/03/05 05:45:34;;;;;;;0.20;0.20;;;;;;;;;;5098143;28;20494;-85
2024/03/05 05:48:00;;;;;;;0.30;0.30;;;;;;;;;;5080770;28;20045;-86
2024/03/05 05:50:31;;;;;;;0.13;0.13;;;;;;;;;;5080448;28;20057;-86
2024/03/05 05:52:57;;;;;;;0.10;0.10;;;;;;;;;;5081269;28;20168;-85
2024/03/05 05:55:24;;;;;;;0.10;0.10;;;;;;;;;;5080506;28;20096;-85
2024/03/05 05:57:51;;;;;;;0.20;0.20;;;;;;;;;;5080670;28;20043;-86
2024/03/05 06:00:31;;;;;;;0.17;0.17;;;;;;;;;;5080898;28;20062;-85
2024/03/05 06:02:57;;;;;;;2.35;1.52;;;;;;;;;;5081989;28;20056;-86
2024/03/05 06:05:27;;;;;;;0.20;0.20;;;;;;;;;;5097130;28;20529;-86
2024/03/05 06:07:56;;;;;;;0.98;0.40;;;;;;;;;;5080871;28;20040;-87
2024/03/05 06:10:22;;;;;;;0.73;0.15;;;;;;;;;;5097175;28;20493;-86
2024/03/05 06:12:48;;;;;;;0.68;0.68;;;;;;;;;;5080586;28;20349;-86
2024/03/05 06:15:14;;;;;;;0.73;0.73;;;;;;;;;;5080092;28;20479;-86
2024/03/05 06:17:40;;;;;;;0.10;0.10;;;;;;;;;;5080238;28;20035;-86
2024/03/05 06:20:10;;;;;;;0.85;0.30;;;;;;;;;;5080300;28;20154;-86
2024/03/05 06:22:36;;;;;;;0.30;0.20;;;;;;;;;;5080431;28;20035;-86
2024/03/05 06:25:02;;;;;;;0.40;0.40;;;;;;;;;;5080278;28;20092;-87
2024/03/05 06:27:28;;;;;;;0.15;0.15;;;;;;;;;;5097272;28;20448;-86
2024/03/05 06:29:54;;;;;;;0.20;0.20;;;;;;;;;;5096731;28;20437;-84
2024/03/05 06:32:20;;;;;;;0.10;0.10;;;;;;;;;;5096757;28;20039;-85
2024/03/05 06:34:48;;;;;;;0.20;0.20;;;;;;;;;;5096354;28;20097;-84
2024/03/05 06:37:14;;;;;;;0.17;0.17;;;;;;;;;;5096580;28;20050;-84
2024/03/05 06:39:41;;;;;;;0.65;0.65;;;;;;;;;;5114116;28;20052;-83
2024/03/05 06:42:10;;;;;;;0.55;0.55;;;;;;;;;;5079943;28;20046;-84
2024/03/05 06:44:36;;;;;;;0.10;0.10;;;;;;;;;;5079744;28;20039;-84
2024/03/05 06:47:04;;;;;;;0.10;0.10;;;;;;;;;;5079486;28;20122;-83
2024/03/05 06:49:38;;;;;;;0.10;0.10;;;;;;;;;;5096503;28;20058;-84
2024/03/05 06:57:48;;;;;;;0.15;0.15;;;;;;;;;;5098740;28;20047;-85
2024/03/05 07:00:17;;;;;;;1.08;0.22;;;;;;;;;;5096402;28;20150;-85
2024/03/05 07:02:43;;;;;;;1.85;0.55;;;;;;;;;;5096305;28;20086;-85
2024/03/05 07:05:09;;;;;;;0.28;0.28;;;;;;;;;;5079263;28;20051;-85
2024/03/05 07:07:35;;;;;;;0.75;0.65;;;;;;;;;;5079117;28;20479;-85
2024/03/05 07:10:13;;;;;;;0.35;0.35;;;;;;;;;;5078876;28;20490;-85
2024/03/05 07:12:40;;;;;;;0.10;0.10;;;;;;;;;;5080767;28;20042;-85
2024/03/05 07:15:09;;;;;;;0.30;0.30;;;;;;;;;;5095281;28;20042;-87
2024/03/05 07:17:36;;;;;;;1.38;1.30;;;;;;;;;;5079722;28;20145;-89
2024/03/05 07:20:03;;;;;;;0.22;0.22;;;;;;;;;;5096367;28;20485;-87
2024/03/05 07:22:29;;;;;;;0.90;0.50;;;;;;;;;;5079672;28;20079;-88
2024/03/05 07:24:55;;;;;;;0.93;0.93;;;;;;;;;;5079419;28;20079;-88
2024/03/05 07:27:21;;;;;;;0.38;0.38;;;;;;;;;;5114012;28;20126;-91
2024/03/05 07:29:47;;;;;;;0.60;0.60;;;;;;;;;;5097038;28;20039;-91
2024/03/05 07:32:16;;;;;;;2.08;0.43;;;;;;;;;;5096848;28;20075;-87
2024/03/05 07:34:42;;;;;;;0.50;0.50;;;;;;;;;;5079589;28;20043;-89
2024/03/05 07:37:08;;;;;;;0.30;0.30;;;;;;;;;;5097344;28;20031;-90
2024/03/05 07:39:34;;;;;;;0.10;0.10;;;;;;;;;;5079030;28;20039;-88
2024/03/05 07:42:00;;;;;;;0.60;0.60;;;;;;;;;;5095854;28;20039;-91
2024/03/05 07:44:26;;;;;;;0.25;0.25;;;;;;;;;;5079675;28;20047;-91
2024/03/05 07:46:52;;;;;;;0.45;0.45;;;;;;;;;;5079860;28;20043;-91
2024/03/05 07:49:18;;;;;;;0.43;0.22;;;;;;;;;;5079350;28;20036;-91
2024/03/05 07:51:44;;;;;;;0.40;0.40;;;;;;;;;;5079475;28;20035;-91
2024/03/05 07:54:11;;;;;;;0.40;0.40;;;;;;;;;;5075363;28;20082;-89
2024/03/05 07:56:37;;;;;;;0.20;0.20;;;;;;;;;;5084659;28;20053;-89
2024/03/05 07:59:03;;;;;;;0.60;0.60;;;;;;;;;;5094452;28;20051;-90
2024/03/05 08:01:29;;;;;;;0.25;0.22;;;;;;;;;;5074530;28;20040;-88
2024/03/05 08:03:56;;;;;;;1.75;0.28;;;;;;;;;;5111164;28;20105;-89
2024/03/05 08:06:22;;;;;;;0.40;0.40;;;;;;;;;;5094808;28;20047;-90
2024/03/05 08:08:48;;;;;;;0.10;0.10;;;;;;;;;;5074611;28;20119;-92
2024/03/05 08:11:14;;;;;;;0.30;0.30;;;;;;;;;;5057835;28;20040;-85
2024/03/05 08:13:40;;;;;;;0.35;0.35;;;;;;;;;;5091612;28;20036;-85
2024/03/05 08:16:08;;;;;;;0.55;0.25;;;;;;;;;;5106511;28;20493;-86
2024/03/05 08:18:34;;;;;;;0.57;0.57;;;;;;;;;;5077709;28;20498;-83
2024/03/05 08:21:03;;;;;;;0.30;0.30;;;;;;;;;;5094797;28;20066;-84
2024/03/05 08:23:29;;;;;;;0.20;0.20;;;;;;;;;;5094119;28;20050;-85
2024/03/05 08:25:55;;;;;;;0.30;0.30;;;;;;;;;;5073992;28;20040;-85
2024/03/05 08:28:21;;;;;;;0.40;0.40;;;;;;;;;;5074361;28;20036;-86
2024/03/05 08:30:48;;;;;;;0.28;0.28;;;;;;;;;;5074010;28;20040;-84
2024/03/05 08:33:19;;;;;;;0.30;0.30;;;;;;;;;;5074135;28;20129;-85
2024/03/05 08:35:45;;;;;;;0.68;0.68;;;;;;;;;;5091063;28;20039;-85
2024/03/05 08:38:13;;;;;;;0.47;0.47;;;;;;;;;;5074230;28;20146;-85
2024/03/05 08:40:39;;;;;;;0.30;0.30;;;;;;;;;;5070930;28;20564;-85
2024/03/05 08:43:07;;;;;;;0.10;0.10;;;;;;;;;;5074007;28;20040;-86
2024/03/05 08:45:33;;;;;;;2.60;0.55;;;;;;;;;;5074345;28;20047;-86
2024/03/05 08:48:00;;;;;;;0.43;0.43;;;;;;;;;;5073804;28;20062;-86
2024/03/05 08:50:28;;;;;;;0.57;0.57;;;;;;;;;;5057407;28;20135;-85
2024/03/05 08:52:54;;;;;;;0.30;0.30;;;;;;;;;;5057819;28;20039;-88
2024/03/05 08:55:20;;;;;;;1.65;0.32;;;;;;;;;;5074117;28;20119;-87
2024/03/05 08:57:51;;;;;;;0.30;0.30;;;;;;;;;;5058122;28;20047;-88
2024/03/05 09:00:18;;;;;;;0.10;0.10;;;;;;;;;;5073859;28;20265;-88
2024/03/05 09:02:44;;;;;;;0.68;0.68;;;;;;;;;;5073864;28;20063;-87
2024/03/05 09:05:10;;;;;;;0.60;0.57;;;;;;;;;;5074331;28;20044;-87
2024/03/05 09:07:39;;;;;;;0.17;0.17;;;;;;;;;;5057411;28;20084;-87
2024/03/05 09:10:06;;;;;;;0.32;0.32;;;;;;;;;;5073804;28;20078;-87
2024/03/05 09:12:33;;;;;;;0.63;0.63;;;;;;;;;;5057330;28;20070;-88
2024/03/05 09:14:59;;;;;;;0.22;0.22;;;;;;;;;;5073832;28;20036;-87
2024/03/05 09:17:26;;;;;;;2.08;0.57;;;;;;;;;;5074308;28;20058;-87
2024/03/05 09:19:52;;;;;;;0.73;0.30;;;;;;;;;;5057688;28;20113;-87
2024/03/05 09:22:19;;;;;;;0.63;0.63;;;;;;;;;;5073857;28;20127;-87
2024/03/05 09:24:45;;;;;;;0.40;0.40;;;;;;;;;;5057024;28;20086;-88
2024/03/05 09:27:11;;;;;;;0.32;0.32;;;;;;;;;;5073903;28;20108;-86
2024/03/05 09:29:38;;;;;;;0.10;0.10;;;;;;;;;;5110486;28;20047;-87
2024/03/05 09:32:04;;;;;;;0.20;0.20;;;;;;;;;;5094073;28;20398;-84
2024/03/05 09:34:30;;;;;;;0.45;0.45;;;;;;;;;;5110769;28;20119;-86
2024/03/05 09:36:56;;;;;;;0.80;0.80;;;;;;;;;;5111630;28;20075;-86
2024/03/05 09:39:23;;;;;;;0.30;0.30;;;;;;;;;;5080605;28;20036;-85
2024/03/05 09:41:49;;;;;;;7.53;0.70;;;;;;;;;;5076393;28;20149;-83
2024/03/05 09:44:15;;;;;;;0.20;0.20;;;;;;;;;;5083705;28;20058;-83
2024/03/05 09:46:45;;;;;;;1.55;0.50;;;;;;;;;;5096838;28;20560;-83
2024/03/05 09:49:13;;;;;;;0.32;0.32;;;;;;;;;;5077843;28;20415;-83
2024/03/05 09:51:43;;;;;;;0.30;0.30;;;;;;;;;;5060408;28;20089;-83
2024/03/05 09:54:12;;;;;;;0.10;0.10;;;;;;;;;;5093669;28;20452;-82
2024/03/05 09:56:42;;;;;;;0.20;0.20;;;;;;;;;;5076758;28;20040;-83
2024/03/05 09:59:10;;;;;;;0.70;0.45;;;;;;;;;;5076865;28;20101;-85
2024/03/05 10:01:37;;;;;;;0.70;0.70;;;;;;;;;;5076748;28;20433;-84
2024/03/05 10:04:05;;;;;;;0.30;0.30;;;;;;;;;;5093937;28;20066;-84
2024/03/05 10:06:31;;;;;;;0.10;0.10;;;;;;;;;;5060304;28;20075;-85
2024/03/05 10:08:57;;;;;;;0.30;0.25;;;;;;;;;;5060099;28;20101;-84
2024/03/05 10:11:23;;;;;;;0.30;0.30;;;;;;;;;;5076884;28;20132;-84
2024/03/05 10:13:49;;;;;;;0.25;0.20;;;;;;;;;;5060029;28;20040;-85
2024/03/05 10:16:19;;;;;;;0.55;0.50;;;;;;;;;;5060195;28;20066;-85
2024/03/05 10:18:50;;;;;;;0.30;0.30;;;;;;;;;;5076872;28;20046;-84
2024/03/05 10:21:20;;;;;;;0.80;0.30;;;;;;;;;;5093492;28;20540;-84
2024/03/05 10:23:47;;;;;;;0.30;0.30;;;;;;;;;;5060309;28;20074;-84
2024/03/05 10:26:20;;;;;;;0.70;0.70;;;;;;;;;;5059984;28;20044;-84
2024/03/05 10:28:46;;;;;;;0.22;0.22;;;;;;;;;;5076727;28;20383;-85
2024/03/05 10:31:25;;;;;;;1.80;1.70;;;;;;;;;;5076367;28;20054;-85
2024/03/05 10:33:56;;;;;;;0.45;0.45;;;;;;;;;;5082109;28;20039;-85
2024/03/05 10:36:35;;;;;;;0.30;0.30;;;;;;;;;;5113487;28;20044;-85
2024/03/05 10:39:01;;;;;;;0.75;0.75;;;;;;;;;;5113527;28;20044;-85
2024/03/05 10:41:28;;;;;;;0.25;0.25;;;;;;;;;;5079715;28;20036;-84
2024/03/05 10:43:54;;;;;;;0.75;0.47;;;;;;;;;;5096591;28;20043;-84
2024/03/05 10:46:20;;;;;;;0.52;0.45;;;;;;;;;;5080252;28;20084;-85
2024/03/05 10:48:47;;;;;;;0.30;0.30;;;;;;;;;;5078582;28;20502;-85
2024/03/05 10:51:14;;;;;;;0.38;0.38;;;;;;;;;;5097181;28;20050;-85
2024/03/05 10:53:41;;;;;;;0.50;0.50;;;;;;;;;;5113639;28;20506;-85
2024/03/05 10:56:07;;;;;;;1.00;0.50;;;;;;;;;;5079363;28;20036;-84
2024/03/05 11:01:08;;;;;;;1.45;1.35;;;;;;;;;;5112970;28;20044;-87
2024/03/05 11:03:39;;;;;;;0.68;0.65;;;;;;;;;;5079599;28;20070;-84
2024/03/05 11:06:06;;;;;;;0.88;0.88;;;;;;;;;;5096126;28;20050;-84
2024/03/05 11:08:32;;;;;;;0.30;0.30;;;;;;;;;;5096166;28;20117;-84
2024/03/05 11:11:05;;;;;;;0.10;0.10;;;;;;;;;;5079300;28;20043;-86
2024/03/05 11:13:32;;;;;;;2.83;0.32;;;;;;;;;;5077844;28;20050;-82
2024/03/05 11:16:03;;;;;;;1.73;1.63;;;;;;;;;;5074443;28;20071;-82
2024/03/05 11:18:34;;;;;;;0.25;0.22;;;;;;;;;;5059319;28;20082;-83
2024/03/05 11:21:05;;;;;;;0.40;0.40;;;;;;;;;;5087202;28;20092;-87
2024/03/05 11:23:32;;;;;;;0.45;0.45;;;;;;;;;;5094656;28;20045;-85
2024/03/05 11:26:07;;;;;;;0.55;0.55;;;;;;;;;;5090533;28;20060;-83
2024/03/05 11:28:33;;;;;;;0.65;0.65;;;;;;;;;;5091968;28;20052;-83
2024/03/05 11:31:16;;;;;;;0.30;0.30;;;;;;;;;;5091903;28;20109;-84
2024/03/05 11:33:43;;;;;;;0.20;0.20;;;;;;;;;;5059064;28;20407;-84
2024/03/05 11:36:22;;;;;;;0.50;0.50;;;;;;;;;;5075468;28;20098;-86
2024/03/05 11:39:03;;;;;;;0.50;0.50;;;;;;;;;;5075253;28;20075;-85
2024/03/05 11:41:30;;;;;;;0.40;0.40;;;;;;;;;;5091717;28;20042;-85
2024/03/05 11:43:57;;;;;;;1.65;1.40;;;;;;;;;;5074868;28;20089;-86
2024/03/05 11:46:41;;;;;;;0.17;0.17;;;;;;;;;;5058442;28;20039;-85
2024/03/05 11:49:07;;;;;;;0.68;0.68;;;;;;;;;;5074651;28;20032;-85
2024/03/05 11:51:33;;;;;;;0.10;0.10;;;;;;;;;;5074715;28;20079;-86
2024/03/05 11:54:02;;;;;;;0.25;0.25;;;;;;;;;;5074832;28;20081;-83
2024/03/05 11:56:28;;;;;;;0.20;0.20;;;;;;;;;;5091964;28;20452;-83
2024/03/05 11:58:54;;;;;;;0.10;0.10;;;;;;;;;;5091656;28;20071;-83
2024/03/05 12:01:21;;;;;;;0.43;0.43;;;;;;;;;;5074409;28;20066;-83
2024/03/05 12:03:51;;;;;;;0.20;0.20;;;;;;;;;;5074741;28;20044;-84
2024/03/05 12:06:17;;;;;;;0.47;0.47;;;;;;;;;;5075273;28;20047;-82
2024/03/05 12:08:44;;;;;;;1.65;0.65;;;;;;;;;;5091488;28;20042;-83
2024/03/05 12:11:11;;;;;;;0.57;0.57;;;;;;;;;;5098576;28;20043;-83
2024/03/05 12:13:37;;;;;;;0.10;0.10;;;;;;;;;;5111724;28;20043;-83
2024/03/05 12:16:10;;;;;;;0.60;0.60;;;;;;;;;;5094596;28;20035;-83
2024/03/05 12:18:38;;;;;;;2.30;0.45;;;;;;;;;;5111639;28;20552;-81
2024/03/05 12:21:06;;;;;;;0.20;0.20;;;;;;;;;;5077905;28;20088;-82
2024/03/05 12:23:35;;;;;;;0.20;0.20;;;;;;;;;;5094502;28;20045;-82
2024/03/05 12:26:03;;;;;;;0.17;0.17;;;;;;;;;;5111451;28;20126;-81
2024/03/05 12:28:31;;;;;;;0.10;0.10;;;;;;;;;;5111508;28;20044;-81
2024/03/05 12:30:57;;;;;;;0.30;0.20;;;;;;;;;;5094270;28;20039;-82
2024/03/05 12:33:26;;;;;;;0.10;0.10;;;;;;;;;;5094558;28;20031;-82
2024/03/05 12:35:53;;;;;;;0.10;0.10;;;;;;;;;;5095103;28;20044;-81
2024/03/05 12:38:20;;;;;;;0.28;0.28;;;;;;;;;;5111834;28;20039;-81
2024/03/05 12:40:46;;;;;;;1.30;0.50;;;;;;;;;;5094380;28;20047;-82
2024/03/05 12:43:13;;;;;;;0.10;0.10;;;;;;;;;;5094308;28;20051;-81
2024/03/05 12:45:39;;;;;;;0.20;0.20;;;;;;;;;;5077754;28;20039;-82
2024/03/05 12:48:08;;;;;;;0.30;0.30;;;;;;;;;;5094407;28;20403;-82
2024/03/05 12:50:34;;;;;;;0.25;0.20;;;;;;;;;;5094076;28;20093;-82
2024/03/05 12:53:00;;;;;;;0.55;0.55;;;;;;;;;;5077444;28;20075;-81
2024/03/05 12:55:29;;;;;;;0.10;0.10;;;;;;;;;;5094373;28;20089;-80
2024/03/05 12:58:05;;;;;;;0.35;0.15;;;;;;;;;;5112353;28;20036;-81
2024/03/05 13:00:34;;;;;;;0.10;0.10;;;;;;;;;;5111151;28;20529;-82
2024/03/05 13:03:07;;;;;;;0.10;0.10;;;;;;;;;;5094527;28;20063;-80
2024/03/05 13:05:33;;;;;;;0.10;0.10;;;;;;;;;;5094131;28;20047;-81
2024/03/05 13:07:59;;;;;;;0.10;0.10;;;;;;;;;;5094044;28;20115;-83
2024/03/05 13:10:25;;;;;;;0.32;0.32;;;;;;;;;;5110660;28;20479;-82
2024/03/05 13:12:52;;;;;;;0.28;0.20;;;;;;;;;;5096373;28;20039;-82
2024/03/05 13:15:18;;;;;;;0.82;0.82;;;;;;;;;;5115072;28;20040;-82
2024/03/05 13:17:50;;;;;;;0.20;0.20;;;;;;;;;;5081273;28;20059;-82
2024/03/05 13:20:18;;;;;;;0.17;0.17;;;;;;;;;;5098181;28;20179;-82
2024/03/05 13:22:45;;;;;;;0.20;0.20;;;;;;;;;;5116145;28;20380;-81
2024/03/05 13:25:15;;;;;;;6.60;1.38;;;;;;;;;;5114803;28;20047;-82
2024/03/05 13:27:53;;;;;;;0.20;0.20;;;;;;;;;;5115115;28;20032;-82
2024/03/05 13:30:20;;;;;;;0.52;0.52;;;;;;;;;;5098195;28;20050;-82
2024/03/05 13:32:47;;;;;;;0.15;0.15;;;;;;;;;;5080987;28;20036;-82
2024/03/05 13:35:13;;;;;;;0.15;0.15;;;;;;;;;;5114677;28;20040;-81
2024/03/05 13:37:39;;;;;;;0.20;0.10;;;;;;;;;;5114732;28;20123;-82
2024/03/05 13:40:06;;;;;;;2.17;0.65;;;;;;;;;;5080682;28;20044;-82
2024/03/05 13:42:35;;;;;;;0.30;0.30;;;;;;;;;;5114470;28;20043;-82
2024/03/05 13:45:01;;;;;;;0.85;0.85;;;;;;;;;;5080911;28;20040;-82
2024/03/05 13:47:27;;;;;;;0.10;0.10;;;;;;;;;;5114392;28;20093;-81
2024/03/05 13:49:53;;;;;;;0.20;0.20;;;;;;;;;;5097318;28;20040;-83
2024/03/05 13:52:19;;;;;;;0.10;0.10;;;;;;;;;;5114542;28;20036;-82
2024/03/05 13:54:45;;;;;;;0.20;0.20;;;;;;;;;;5097446;28;20471;-81
2024/03/05 13:57:11;;;;;;;0.10;0.10;;;;;;;;;;5097316;28;20523;-79
2024/03/05 13:59:37;;;;;;;0.10;0.10;;;;;;;;;;5114335;28;20248;-82
2024/03/05 14:02:03;;;;;;;0.52;0.32;;;;;;;;;;5096937;28;20051;-81
2024/03/05 14:04:29;;;;;;;0.20;0.20;;;;;;;;;;5114113;28;20123;-82
2024/03/05 14:06:55;;;;;;;0.20;0.20;;;;;;;;;;5097125;28;20047;-82
2024/03/05 14:09:21;;;;;;;0.35;0.35;;;;;;;;;;5097390;28;20043;-83
2024/03/05 14:11:47;;;;;;;0.45;0.30;;;;;;;;;;5114157;28;20042;-82
2024/03/05 14:14:16;;;;;;;0.20;0.20;;;;;;;;;;5097040;28;20055;-82
2024/03/05 14:16:44;;;;;;;0.47;0.47;;;;;;;;;;5096992;28;20040;-81
2024/03/05 14:19:10;;;;;;;0.30;0.30;;;;;;;;;;5113704;28;20036;-82
2024/03/05 14:21:37;;;;;;;0.10;0.10;;;;;;;;;;5097088;28;20106;-82
2024/03/05 14:24:03;;;;;;;0.20;0.20;;;;;;;;;;5096592;28;20071;-82
2024/03/05 14:26:30;;;;;;;0.30;0.30;;;;;;;;;;5113653;28;20039;-82
2024/03/05 14:28:56;;;;;;;0.43;0.22;;;;;;;;;;5080205;28;20086;-82
2024/03/05 14:31:24;;;;;;;0.10;0.10;;;;;;;;;;5096520;28;20478;-82
2024/03/05 14:33:51;;;;;;;0.10;0.10;;;;;;;;;;5079986;28;20123;-81
2024/03/05 14:36:17;;;;;;;0.10;0.10;;;;;;;;;;5096807;28;20040;-81
2024/03/05 14:38:43;;;;;;;0.20;0.20;;;;;;;;;;5113491;28;20089;-82
2024/03/05 14:41:09;;;;;;;1.02;0.30;;;;;;;;;;5113627;28;20391;-81
2024/03/05 14:43:35;;;;;;;0.10;0.10;;;;;;;;;;5096267;28;20048;-82
2024/03/05 14:46:02;;;;;;;0.10;0.10;;;;;;;;;;5096319;28;20088;-82
2024/03/05 14:48:28;;;;;;;0.22;0.22;;;;;;;;;;5079729;28;20040;-81
2024/03/05 14:50:54;;;;;;;0.20;0.20;;;;;;;;;;5096208;28;20490;-82